sensor_id;sensor_type;location;lat;lon;timestamp;pressure;altitude;pressure_sealevel;temperature;humidity
29045;BME280;16133;49.486;12.176;2023-03-04T00:02:20;97775.41;;;-3.61;100.00
29045;BME280;16133;49.486;12.176;2023-03-04T00:04:45;97780.91;;;-3.67;100.00
29045;BME280;16133;49.486;12.176;2023-03-04T00:07:11;97778.41;;;-3.68;100.00
29045;BME280;16133;49.486;12.176;2023-03-04T00:09:41;97778.91;;;-3.62;100.00
29045;BME280;16133;49.486;12.176;2023-03-04T00:12:07;97770.69;;;-3.70;100.00
29045;BME280;16133;49.486;12.176;2023-03-04T00:14:32;97760.50;;;-3.73;100.00
29045;BME280;16133;49.486;12.176;2023-03-04T00:16:58;97772.47;;;-3.70;100.00
29045;BME280;16133;49.486;12.176;2023-03-04T00:19:23;97771.72;;;-3.72;100.00
29045;BME280;16133;49.486;12.176;2023-03-04T00:21:48;97774.72;;;-3.80;100.00
29045;BME280;16133;49.486;12.176;2023-03-04T00:24:14;97777.16;;;-3.77;100.00
29045;BME280;16133;49.486;12.176;2023-03-04T00:26:39;97774.38;;;-3.74;100.00
29045;BME280;16133;49.486;12.176;2023-03-04T00:29:05;97772.81;;;-3.76;100.00
29045;BME280;16133;49.486;12.176;2023-03-04T00:31:30;97773.03;;;-3.81;100.00
29045;BME280;16133;49.486;12.176;2023-03-04T00:33:55;97778.53;;;-3.87;100.00
29045;BME280;16133;49.486;12.176;2023-03-04T00:36:21;97764.66;;;-3.86;100.00
29045;BME280;16133;49.486;12.176;2023-03-04T00:38:46;97767.59;;;-3.92;100.00
29045;BME280;16133;49.486;12.176;2023-03-04T00:41:11;97768.84;;;-3.99;100.00
29045;BME280;16133;49.486;12.176;2023-03-04T00:43:37;97765.66;;;-4.04;100.00
29045;BME280;16133;49.486;12.176;2023-03-04T00:46:02;97756.44;;;-4.10;100.00
29045;BME280;16133;49.486;12.176;2023-03-04T00:48:27;97758.13;;;-4.09;100.00
29045;BME280;16133;49.486;12.176;2023-03-04T00:50:53;97761.13;;;-4.16;100.00
29045;BME280;16133;49.486;12.176;2023-03-04T00:53:19;97750.16;;;-4.21;100.00
29045;BME280;16133;49.486;12.176;2023-03-04T00:55:44;97753.97;;;-4.28;100.00
29045;BME280;16133;49.486;12.176;2023-03-04T00:58:10;97749.75;;;-4.29;100.00
29045;BME280;16133;49.486;12.176;2023-03-04T01:00:35;97717.63;;;-4.43;100.00
29045;BME280;16133;49.486;12.176;2023-03-04T01:03:00;97747.72;;;-4.24;100.00
29045;BME280;16133;49.486;12.176;2023-03-04T01:05:26;97742.53;;;-4.24;100.00
29045;BME280;16133;49.486;12.176;2023-03-04T01:07:51;97743.63;;;-4.28;100.00
29045;BME280;16133;49.486;12.176;2023-03-04T01:10:17;97741.81;;;-4.26;100.00
29045;BME280;16133;49.486;12.176;2023-03-04T01:12:43;97736.28;;;-4.20;100.00
29045;BME280;16133;49.486;12.176;2023-03-04T01:15:10;97732.97;;;-4.22;100.00
29045;BME280;16133;49.486;12.176;2023-03-04T01:17:36;97733.13;;;-4.25;100.00
29045;BME280;16133;49.486;12.176;2023-03-04T01:20:03;97729.03;;;-4.29;100.00
29045;BME280;16133;49.486;12.176;2023-03-04T01:22:29;97727.00;;;-4.24;100.00
29045;BME280;16133;49.486;12.176;2023-03-04T01:24:55;97730.69;;;-4.28;100.00
29045;BME280;16133;49.486;12.176;2023-03-04T01:27:20;97724.41;;;-4.24;100.00
29045;BME280;16133;49.486;12.176;2023-03-04T01:29:45;97725.50;;;-4.28;100.00
29045;BME280;16133;49.486;12.176;2023-03-04T01:32:11;97723.00;;;-4.30;100.00
29045;BME280;16133;49.486;12.176;2023-03-04T01:34:36;97724.59;;;-4.27;100.00
29045;BME280;16133;49.486;12.176;2023-03-04T01:37:01;97715.31;;;-4.31;100.00
29045;BME280;16133;49.486;12.176;2023-03-04T01:39:27;97715.31;;;-4.31;100.00
29045;BME280;16133;49.486;12.176;2023-03-04T01:41:53;97711.53;;;-4.42;100.00
29045;BME280;16133;49.486;12.176;2023-03-04T01:44:18;97716.28;;;-4.50;100.00
29045;BME280;16133;49.486;12.176;2023-03-04T01:46:49;97704.88;;;-4.30;100.00
29045;BME280;16133;49.486;12.176;2023-03-04T01:49:15;97701.91;;;-4.40;100.00
29045;BME280;16133;49.486;12.176;2023-03-04T01:51:48;97697.13;;;-4.47;100.00
29045;BME280;16133;49.486;12.176;2023-03-04T01:54:16;97702.72;;;-4.55;100.00
29045;BME280;16133;49.486;12.176;2023-03-04T01:56:44;97697.38;;;-4.52;100.00
29045;BME280;16133;49.486;12.176;2023-03-04T01:59:24;97702.81;;;-4.56;100.00
29045;BME280;16133;49.486;12.176;2023-03-04T02:01:52;97694.69;;;-4.66;100.00
29045;BME280;16133;49.486;12.176;2023-03-04T02:04:20;97693.25;;;-4.71;100.00
29045;BME280;16133;49.486;12.176;2023-03-04T02:06:46;97691.47;;;-4.71;100.00
29045;BME280;16133;49.486;12.176;2023-03-04T02:09:14;97691.81;;;-4.77;100.00
29045;BME280;16133;49.486;12.176;2023-03-04T02:11:40;97695.47;;;-4.81;100.00
29045;BME280;16133;49.486;12.176;2023-03-04T02:14:06;97693.94;;;-4.85;100.00
29045;BME280;16133;49.486;12.176;2023-03-04T02:16:32;97688.94;;;-4.88;100.00
29045;BME280;16133;49.486;12.176;2023-03-04T02:18:58;97684.84;;;-4.92;100.00
29045;BME280;16133;49.486;12.176;2023-03-04T02:21:32;97690.06;;;-4.94;100.00
29045;BME280;16133;49.486;12.176;2023-03-04T02:26:34;97683.69;;;-5.04;100.00
29045;BME280;16133;49.486;12.176;2023-03-04T02:29:01;97675.31;;;-5.09;100.00
29045;BME280;16133;49.486;12.176;2023-03-04T02:31:37;97689.19;;;-5.10;100.00
29045;BME280;16133;49.486;12.176;2023-03-04T02:36:45;97680.88;;;-5.16;100.00
29045;BME280;16133;49.486;12.176;2023-03-04T02:39:22;97681.81;;;-5.17;100.00
29045;BME280;16133;49.486;12.176;2023-03-04T02:41:51;97678.00;;;-5.10;100.00
29045;BME280;16133;49.486;12.176;2023-03-04T02:44:26;97666.66;;;-5.08;100.00
29045;BME280;16133;49.486;12.176;2023-03-04T02:46:52;97662.50;;;-5.10;100.00
29045;BME280;16133;49.486;12.176;2023-03-04T02:49:18;97666.13;;;-5.14;100.00
29045;BME280;16133;49.486;12.176;2023-03-04T02:51:44;97660.97;;;-5.14;100.00
29045;BME280;16133;49.486;12.176;2023-03-04T02:54:18;97653.38;;;-5.17;100.00
29045;BME280;16133;49.486;12.176;2023-03-04T02:56:48;97652.59;;;-5.19;100.00
29045;BME280;16133;49.486;12.176;2023-03-04T02:59:14;97651.91;;;-5.23;100.00
29045;BME280;16133;49.486;12.176;2023-03-04T03:01:39;97649.41;;;-5.24;100.00
29045;BME280;16133;49.486;12.176;2023-03-04T03:04:05;97655.41;;;-5.24;100.00
29045;BME280;16133;49.486;12.176;2023-03-04T03:06:30;97648.66;;;-5.26;100.00
29045;BME280;16133;49.486;12.176;2023-03-04T03:08:56;97652.31;;;-5.31;100.00
29045;BME280;16133;49.486;12.176;2023-03-04T03:11:21;97651.84;;;-5.39;100.00
29045;BME280;16133;49.486;12.176;2023-03-04T03:13:46;97647.00;;;-5.45;100.00
29045;BME280;16133;49.486;12.176;2023-03-04T03:16:12;97645.69;;;-5.53;100.00
29045;BME280;16133;49.486;12.176;2023-03-04T03:18:37;97650.31;;;-5.60;100.00
29045;BME280;16133;49.486;12.176;2023-03-04T03:21:02;97651.50;;;-5.67;100.00
29045;BME280;16133;49.486;12.176;2023-03-04T03:23:28;97654.47;;;-5.74;100.00
29045;BME280;16133;49.486;12.176;2023-03-04T03:25:53;97650.44;;;-5.80;100.00
29045;BME280;16133;49.486;12.176;2023-03-04T03:28:18;97649.09;;;-5.87;100.00
29045;BME280;16133;49.486;12.176;2023-03-04T03:30:44;97656.06;;;-5.89;100.00
29045;BME280;16133;49.486;12.176;2023-03-04T03:33:09;97657.13;;;-5.93;100.00
29045;BME280;16133;49.486;12.176;2023-03-04T03:35:35;97657.13;;;-5.93;100.00
29045;BME280;16133;49.486;12.176;2023-03-04T03:38:00;97661.25;;;-5.89;100.00
29045;BME280;16133;49.486;12.176;2023-03-04T03:40:25;97663.44;;;-5.82;100.00
29045;BME280;16133;49.486;12.176;2023-03-04T03:42:51;97660.56;;;-5.75;100.00
29045;BME280;16133;49.486;12.176;2023-03-04T03:45:16;97658.66;;;-5.72;100.00
29045;BME280;16133;49.486;12.176;2023-03-04T03:47:41;97648.56;;;-5.59;100.00
29045;BME280;16133;49.486;12.176;2023-03-04T03:50:07;97645.97;;;-5.59;100.00
29045;BME280;16133;49.486;12.176;2023-03-04T03:52:33;97653.59;;;-5.56;100.00
29045;BME280;16133;49.486;12.176;2023-03-04T03:54:58;97637.53;;;-5.63;100.00
29045;BME280;16133;49.486;12.176;2023-03-04T03:57:26;97643.38;;;-5.59;100.00
29045;BME280;16133;49.486;12.176;2023-03-04T03:59:51;97601.41;;;-5.82;100.00
29045;BME280;16133;49.486;12.176;2023-03-04T04:02:17;97635.72;;;-5.61;100.00
29045;BME280;16133;49.486;12.176;2023-03-04T04:04:42;97632.34;;;-5.63;100.00
29045;BME280;16133;49.486;12.176;2023-03-04T04:07:07;97635.19;;;-5.67;100.00
29045;BME280;16133;49.486;12.176;2023-03-04T04:09:33;97636.31;;;-5.73;100.00
29045;BME280;16133;49.486;12.176;2023-03-04T04:11:58;97639.81;;;-5.74;100.00
29045;BME280;16133;49.486;12.176;2023-03-04T04:14:23;97646.88;;;-5.78;100.00
29045;BME280;16133;49.486;12.176;2023-03-04T04:16:49;97640.88;;;-5.78;100.00
29045;BME280;16133;49.486;12.176;2023-03-04T04:19:18;97650.34;;;-5.79;100.00
29045;BME280;16133;49.486;12.176;2023-03-04T04:21:44;97647.09;;;-5.82;100.00
29045;BME280;16133;49.486;12.176;2023-03-04T04:24:10;97655.22;;;-5.90;100.00
29045;BME280;16133;49.486;12.176;2023-03-04T04:26:35;97651.06;;;-5.92;100.00
29045;BME280;16133;49.486;12.176;2023-03-04T04:29:01;97654.06;;;-6.01;100.00
29045;BME280;16133;49.486;12.176;2023-03-04T04:31:26;97660.28;;;-6.05;100.00
29045;BME280;16133;49.486;12.176;2023-03-04T04:33:51;97657.84;;;-6.08;100.00
29045;BME280;16133;49.486;12.176;2023-03-04T04:36:16;97658.16;;;-6.14;100.00
29045;BME280;16133;49.486;12.176;2023-03-04T04:38:42;97677.97;;;-6.15;100.00
29045;BME280;16133;49.486;12.176;2023-03-04T04:41:19;97675.53;;;-6.18;100.00
29045;BME280;16133;49.486;12.176;2023-03-04T04:43:45;97680.84;;;-6.21;100.00
29045;BME280;16133;49.486;12.176;2023-03-04T04:46:11;97681.94;;;-6.26;100.00
29045;BME280;16133;49.486;12.176;2023-03-04T04:48:36;97683.78;;;-6.28;100.00
29045;BME280;16133;49.486;12.176;2023-03-04T04:51:01;97687.31;;;-6.31;100.00
29045;BME280;16133;49.486;12.176;2023-03-04T04:53:27;97687.75;;;-6.21;100.00
29045;BME280;16133;49.486;12.176;2023-03-04T04:55:52;97690.53;;;-6.07;100.00
29045;BME280;16133;49.486;12.176;2023-03-04T04:58:17;97676.44;;;-5.83;100.00
29045;BME280;16133;49.486;12.176;2023-03-04T05:00:43;97668.69;;;-5.66;100.00
29045;BME280;16133;49.486;12.176;2023-03-04T05:03:08;97667.03;;;-5.50;100.00
29045;BME280;16133;49.486;12.176;2023-03-04T05:05:33;97662.72;;;-5.32;100.00
29045;BME280;16133;49.486;12.176;2023-03-04T05:07:59;97649.09;;;-5.18;100.00
29045;BME280;16133;49.486;12.176;2023-03-04T05:10:24;97647.84;;;-4.94;100.00
29045;BME280;16133;49.486;12.176;2023-03-04T05:12:49;97638.03;;;-4.88;100.00
29045;BME280;16133;49.486;12.176;2023-03-04T05:15:15;97626.25;;;-4.77;100.00
29045;BME280;16133;49.486;12.176;2023-03-04T05:17:40;97625.56;;;-4.64;100.00
29045;BME280;16133;49.486;12.176;2023-03-04T05:20:06;97613.84;;;-4.55;100.00
29045;BME280;16133;49.486;12.176;2023-03-04T05:22:33;97617.38;;;-4.41;100.00
29045;BME280;16133;49.486;12.176;2023-03-04T05:24:58;97623.38;;;-4.24;100.00
29045;BME280;16133;49.486;12.176;2023-03-04T05:27:23;97641.44;;;-4.07;100.00
29045;BME280;16133;49.486;12.176;2023-03-04T05:29:49;97657.84;;;-3.91;100.00
29045;BME280;16133;49.486;12.176;2023-03-04T05:32:14;97678.81;;;-3.96;100.00
29045;BME280;16133;49.486;12.176;2023-03-04T05:34:39;97678.88;;;-3.97;100.00
29045;BME280;16133;49.486;12.176;2023-03-04T05:37:05;97679.47;;;-3.92;100.00
29045;BME280;16133;49.486;12.176;2023-03-04T05:39:30;97684.00;;;-3.96;100.00
29045;BME280;16133;49.486;12.176;2023-03-04T05:41:55;97692.09;;;-3.86;100.00
29045;BME280;16133;49.486;12.176;2023-03-04T05:44:21;97679.06;;;-4.00;100.00
29045;BME280;16133;49.486;12.176;2023-03-04T05:46:46;97689.25;;;-3.97;100.00
29045;BME280;16133;49.486;12.176;2023-03-04T05:49:12;97687.44;;;-3.95;100.00
29045;BME280;16133;49.486;12.176;2023-03-04T05:51:37;97682.97;;;-3.93;100.00
29045;BME280;16133;49.486;12.176;2023-03-04T05:54:02;97686.16;;;-3.72;100.00
29045;BME280;16133;49.486;12.176;2023-03-04T05:56:28;97698.84;;;-3.68;100.00
29045;BME280;16133;49.486;12.176;2023-03-04T05:58:58;97718.34;;;-3.61;100.00
29045;BME280;16133;49.486;12.176;2023-03-04T06:01:24;97720.44;;;-3.67;100.00
29045;BME280;16133;49.486;12.176;2023-03-04T06:03:50;97730.91;;;-3.69;100.00
29045;BME280;16133;49.486;12.176;2023-03-04T06:06:15;97733.25;;;-3.64;100.00
29045;BME280;16133;49.486;12.176;2023-03-04T06:08:41;97736.41;;;-3.59;100.00
29045;BME280;16133;49.486;12.176;2023-03-04T06:11:06;97742.09;;;-3.53;100.00
29045;BME280;16133;49.486;12.176;2023-03-04T06:13:32;97746.69;;;-3.58;100.00
29045;BME280;16133;49.486;12.176;2023-03-04T06:15:58;97746.22;;;-3.64;100.00
29045;BME280;16133;49.486;12.176;2023-03-04T06:18:25;97737.16;;;-3.57;100.00
29045;BME280;16133;49.486;12.176;2023-03-04T06:20:57;97745.78;;;-3.57;100.00
29045;BME280;16133;49.486;12.176;2023-03-04T06:23:24;97749.47;;;-3.61;100.00
29045;BME280;16133;49.486;12.176;2023-03-04T06:25:51;97745.09;;;-3.60;100.00
29045;BME280;16133;49.486;12.176;2023-03-04T06:28:16;97707.31;;;-3.64;100.00
29045;BME280;16133;49.486;12.176;2023-03-04T06:30:42;97753.63;;;-3.43;100.00
29045;BME280;16133;49.486;12.176;2023-03-04T06:33:07;97759.47;;;-3.39;100.00
29045;BME280;16133;49.486;12.176;2023-03-04T06:35:33;97765.78;;;-3.13;100.00
29045;BME280;16133;49.486;12.176;2023-03-04T06:37:58;97769.34;;;-3.14;100.00
29045;BME280;16133;49.486;12.176;2023-03-04T06:40:23;97775.78;;;-3.21;100.00
29045;BME280;16133;49.486;12.176;2023-03-04T06:42:49;97767.97;;;-3.21;100.00
29045;BME280;16133;49.486;12.176;2023-03-04T06:45:14;97775.03;;;-3.23;100.00
29045;BME280;16133;49.486;12.176;2023-03-04T06:47:39;97774.69;;;-3.17;100.00
29045;BME280;16133;49.486;12.176;2023-03-04T06:50:05;97775.03;;;-3.23;100.00
29045;BME280;16133;49.486;12.176;2023-03-04T06:52:31;97778.09;;;-3.17;100.00
29045;BME280;16133;49.486;12.176;2023-03-04T06:54:56;97782.00;;;-2.94;100.00
29045;BME280;16133;49.486;12.176;2023-03-04T06:57:21;97786.03;;;-3.04;100.00
29045;BME280;16133;49.486;12.176;2023-03-04T06:59:47;97782.44;;;-3.02;100.00
29045;BME280;16133;49.486;12.176;2023-03-04T07:02:12;97785.94;;;-3.03;100.00
29045;BME280;16133;49.486;12.176;2023-03-04T07:04:38;97786.34;;;-2.95;100.00
29045;BME280;16133;49.486;12.176;2023-03-04T07:07:03;97781.38;;;-2.83;100.00
29045;BME280;16133;49.486;12.176;2023-03-04T07:09:29;97796.19;;;-2.70;100.00
29045;BME280;16133;49.486;12.176;2023-03-04T07:11:54;97792.88;;;-2.58;100.00
29045;BME280;16133;49.486;12.176;2023-03-04T07:14:20;97806.78;;;-2.59;100.00
29045;BME280;16133;49.486;12.176;2023-03-04T07:16:45;97799.44;;;-2.52;100.00
29045;BME280;16133;49.486;12.176;2023-03-04T07:19:11;97805.69;;;-2.55;100.00
29045;BME280;16133;49.486;12.176;2023-03-04T07:21:36;97801.78;;;-2.48;100.00
29045;BME280;16133;49.486;12.176;2023-03-04T07:24:02;97806.53;;;-2.40;100.00
29045;BME280;16133;49.486;12.176;2023-03-04T07:26:27;97812.19;;;-2.33;100.00
29045;BME280;16133;49.486;12.176;2023-03-04T07:28:53;97809.25;;;-2.27;100.00
29045;BME280;16133;49.486;12.176;2023-03-04T07:31:30;97804.53;;;-2.21;100.00
29045;BME280;16133;49.486;12.176;2023-03-04T07:34:00;97804.06;;;-2.13;100.00
29045;BME280;16133;49.486;12.176;2023-03-04T07:36:26;97800.72;;;-2.01;100.00
29045;BME280;16133;49.486;12.176;2023-03-04T07:38:52;97801.47;;;-1.99;100.00
29045;BME280;16133;49.486;12.176;2023-03-04T07:41:22;97807.22;;;-1.80;100.00
29045;BME280;16133;49.486;12.176;2023-03-04T07:43:48;97813.63;;;-1.85;100.00
29045;BME280;16133;49.486;12.176;2023-03-04T07:46:13;97809.16;;;-1.83;100.00
29045;BME280;16133;49.486;12.176;2023-03-04T07:48:39;97814.66;;;-1.74;100.00
29045;BME280;16133;49.486;12.176;2023-03-04T07:51:13;97816.69;;;-1.65;100.00
29045;BME280;16133;49.486;12.176;2023-03-04T07:53:40;97813.91;;;-1.62;100.00
29045;BME280;16133;49.486;12.176;2023-03-04T07:56:07;97813.16;;;-1.50;100.00
29045;BME280;16133;49.486;12.176;2023-03-04T07:58:33;97822.53;;;-1.47;100.00
29045;BME280;16133;49.486;12.176;2023-03-04T08:00:58;97815.44;;;-1.45;100.00
29045;BME280;16133;49.486;12.176;2023-03-04T08:03:24;97815.44;;;-1.45;100.00
29045;BME280;16133;49.486;12.176;2023-03-04T08:05:50;97819.53;;;-1.27;100.00
29045;BME280;16133;49.486;12.176;2023-03-04T08:08:15;97815.78;;;-1.23;100.00
29045;BME280;16133;49.486;12.176;2023-03-04T08:10:41;97823.13;;;-1.15;100.00
29045;BME280;16133;49.486;12.176;2023-03-04T08:13:07;97818.19;;;-1.20;100.00
29045;BME280;16133;49.486;12.176;2023-03-04T08:15:33;97816.88;;;-1.13;100.00
29045;BME280;16133;49.486;12.176;2023-03-04T08:18:00;97820.25;;;-0.98;100.00
29045;BME280;16133;49.486;12.176;2023-03-04T08:20:26;97812.16;;;-0.93;100.00
29045;BME280;16133;49.486;12.176;2023-03-04T08:22:51;97814.34;;;-0.87;100.00
29045;BME280;16133;49.486;12.176;2023-03-04T08:25:16;97812.59;;;-0.87;100.00
29045;BME280;16133;49.486;12.176;2023-03-04T08:27:42;97822.06;;;-0.86;100.00
29045;BME280;16133;49.486;12.176;2023-03-04T08:30:08;97819.06;;;-0.80;100.00
29045;BME280;16133;49.486;12.176;2023-03-04T08:32:33;97816.97;;;-0.87;100.00
29045;BME280;16133;49.486;12.176;2023-03-04T08:34:59;97810.56;;;-0.69;100.00
29045;BME280;16133;49.486;12.176;2023-03-04T08:37:27;97814.75;;;-0.67;100.00
29045;BME280;16133;49.486;12.176;2023-03-04T08:39:53;97818.28;;;-0.68;100.00
29045;BME280;16133;49.486;12.176;2023-03-04T08:42:18;97818.03;;;-0.77;100.00
29045;BME280;16133;49.486;12.176;2023-03-04T08:44:43;97814.19;;;-0.72;100.00
29045;BME280;16133;49.486;12.176;2023-03-04T08:47:09;97825.88;;;-0.65;100.00
29045;BME280;16133;49.486;12.176;2023-03-04T08:49:34;97815.38;;;-0.63;100.00
29045;BME280;16133;49.486;12.176;2023-03-04T08:52:00;97819.88;;;-0.53;100.00
29045;BME280;16133;49.486;12.176;2023-03-04T08:54:25;97825.19;;;-0.41;100.00
29045;BME280;16133;49.486;12.176;2023-03-04T08:56:51;97823.66;;;-0.19;100.00
29045;BME280;16133;49.486;12.176;2023-03-04T08:59:17;97830.25;;;-0.38;100.00
29045;BME280;16133;49.486;12.176;2023-03-04T09:01:43;97835.34;;;-0.37;100.00
29045;BME280;16133;49.486;12.176;2023-03-04T09:04:08;97834.69;;;-0.40;100.00
29045;BME280;16133;49.486;12.176;2023-03-04T09:06:33;97832.59;;;-0.48;100.00
29045;BME280;16133;49.486;12.176;2023-03-04T09:08:59;97831.16;;;-0.39;100.00
29045;BME280;16133;49.486;12.176;2023-03-04T09:11:24;97834.66;;;-0.53;100.00
29045;BME280;16133;49.486;12.176;2023-03-04T09:13:50;97837.09;;;-0.37;100.00
29045;BME280;16133;49.486;12.176;2023-03-04T09:16:16;97836.09;;;-0.10;100.00
29045;BME280;16133;49.486;12.176;2023-03-04T09:18:41;97831.94;;;-0.12;100.00
29045;BME280;16133;49.486;12.176;2023-03-04T09:21:07;97830.25;;;0.12;99.97
29045;BME280;16133;49.486;12.176;2023-03-04T09:23:33;97840.47;;;-0.10;99.74
29045;BME280;16133;49.486;12.176;2023-03-04T09:25:59;97830.38;;;-0.02;99.81
29045;BME280;16133;49.486;12.176;2023-03-04T09:28:24;97834.63;;;0.12;100.00
29045;BME280;16133;49.486;12.176;2023-03-04T09:30:50;97837.78;;;0.29;99.36
29045;BME280;16133;49.486;12.176;2023-03-04T09:33:15;97837.13;;;0.38;98.17
29045;BME280;16133;49.486;12.176;2023-03-04T09:35:40;97829.06;;;0.54;97.60
29045;BME280;16133;49.486;12.176;2023-03-04T09:38:06;97833.75;;;0.62;96.04
29045;BME280;16133;49.486;12.176;2023-03-04T09:40:41;97833.19;;;0.69;95.32
29045;BME280;16133;49.486;12.176;2023-03-04T09:43:14;97832.00;;;0.86;94.45
29045;BME280;16133;49.486;12.176;2023-03-04T09:45:47;97838.81;;;1.12;91.91
29045;BME280;16133;49.486;12.176;2023-03-04T09:48:17;97831.81;;;1.13;90.83
29045;BME280;16133;49.486;12.176;2023-03-04T09:50:57;97835.34;;;1.12;90.27
29045;BME280;16133;49.486;12.176;2023-03-04T09:56:19;97830.22;;;0.99;90.13
29045;BME280;16133;49.486;12.176;2023-03-04T10:01:38;97837.38;;;1.08;90.04
29045;BME280;16133;49.486;12.176;2023-03-04T10:04:14;97838.66;;;1.03;89.73
29045;BME280;16133;49.486;12.176;2023-03-04T10:06:43;97830.75;;;1.15;90.44
29045;BME280;16133;49.486;12.176;2023-03-04T10:09:20;97832.19;;;1.19;89.00
29045;BME280;16133;49.486;12.176;2023-03-04T10:12:00;97839.47;;;1.27;88.17
29045;BME280;16133;49.486;12.176;2023-03-04T10:14:34;97823.50;;;1.42;86.05
29045;BME280;16133;49.486;12.176;2023-03-04T10:17:12;97825.41;;;1.40;84.42
29045;BME280;16133;49.486;12.176;2023-03-04T10:20:18;97823.41;;;1.44;84.85
29045;BME280;16133;49.486;12.176;2023-03-04T10:22:57;97820.56;;;1.47;84.60
29045;BME280;16133;49.486;12.176;2023-03-04T10:25:29;97817.13;;;1.58;85.23
29045;BME280;16133;49.486;12.176;2023-03-04T10:33:16;97807.72;;;1.90;83.28
29045;BME280;16133;49.486;12.176;2023-03-04T10:35:44;97808.09;;;1.97;83.29
29045;BME280;16133;49.486;12.176;2023-03-04T10:38:12;97812.63;;;1.95;82.42
29045;BME280;16133;49.486;12.176;2023-03-04T10:40:39;97816.19;;;2.16;80.67
29045;BME280;16133;49.486;12.176;2023-03-04T10:43:05;97808.69;;;2.11;80.39
29045;BME280;16133;49.486;12.176;2023-03-04T10:45:37;97808.94;;;2.08;80.45
29045;BME280;16133;49.486;12.176;2023-03-04T10:48:03;97808.47;;;2.03;80.81
29045;BME280;16133;49.486;12.176;2023-03-04T10:50:28;97804.44;;;2.10;81.67
29045;BME280;16133;49.486;12.176;2023-03-04T10:52:54;97807.88;;;2.11;81.22
29045;BME280;16133;49.486;12.176;2023-03-04T10:55:28;97802.53;;;2.12;81.21
29045;BME280;16133;49.486;12.176;2023-03-04T10:58:03;97797.41;;;2.11;82.36
29045;BME280;16133;49.486;12.176;2023-03-04T11:03:29;97800.16;;;2.20;81.95
29045;BME280;16133;49.486;12.176;2023-03-04T11:06:21;97796.59;;;2.21;80.26
29045;BME280;16133;49.486;12.176;2023-03-04T11:08:58;97800.50;;;2.27;79.75
29045;BME280;16133;49.486;12.176;2023-03-04T11:11:30;97797.06;;;2.37;77.25
29045;BME280;16133;49.486;12.176;2023-03-04T11:14:01;97788.25;;;2.38;77.15
29045;BME280;16133;49.486;12.176;2023-03-04T11:16:31;97777.06;;;2.25;76.95
29045;BME280;16133;49.486;12.176;2023-03-04T11:19:04;97791.81;;;2.26;79.13
29045;BME280;16133;49.486;12.176;2023-03-04T11:21:36;97786.72;;;2.36;78.00
29045;BME280;16133;49.486;12.176;2023-03-04T11:26:52;97782.88;;;2.62;76.70
29045;BME280;16133;49.486;12.176;2023-03-04T11:29:33;97776.78;;;2.73;75.28
29045;BME280;16133;49.486;12.176;2023-03-04T11:32:12;97768.91;;;2.73;76.47
29045;BME280;16133;49.486;12.176;2023-03-04T11:34:59;97776.75;;;2.84;75.24
29045;BME280;16133;49.486;12.176;2023-03-04T11:37:34;97777.97;;;2.69;76.44
29045;BME280;16133;49.486;12.176;2023-03-04T11:42:35;97782.53;;;2.56;77.80
29045;BME280;16133;49.486;12.176;2023-03-04T11:45:04;97775.00;;;2.73;77.46
29045;BME280;16133;49.486;12.176;2023-03-04T11:55:46;97766.50;;;2.92;76.04
29045;BME280;16133;49.486;12.176;2023-03-04T12:01:08;97763.50;;;2.97;74.90
29045;BME280;16133;49.486;12.176;2023-03-04T12:04:12;97756.97;;;2.91;74.19
29045;BME280;16133;49.486;12.176;2023-03-04T12:15:20;97741.06;;;2.61;76.92
29045;BME280;16133;49.486;12.176;2023-03-04T12:23:10;97736.00;;;2.37;79.99
29045;BME280;16133;49.486;12.176;2023-03-04T12:28:41;97722.31;;;2.45;80.17
29045;BME280;16133;49.486;12.176;2023-03-04T12:42:21;97717.28;;;2.41;79.96
29045;BME280;16133;49.486;12.176;2023-03-04T12:45:01;97714.91;;;2.38;81.41
29045;BME280;16133;49.486;12.176;2023-03-04T12:55:36;97703.78;;;2.68;79.18
29045;BME280;16133;49.486;12.176;2023-03-04T12:58:01;97704.38;;;2.72;79.26
29045;BME280;16133;49.486;12.176;2023-03-04T13:00:43;97702.78;;;2.80;77.68
29045;BME280;16133;49.486;12.176;2023-03-04T13:03:26;97695.59;;;2.62;79.09
29045;BME280;16133;49.486;12.176;2023-03-04T13:06:01;97704.28;;;2.62;79.64
29045;BME280;16133;49.486;12.176;2023-03-04T13:08:45;97693.69;;;2.64;79.64
29045;BME280;16133;49.486;12.176;2023-03-04T13:25:31;97680.63;;;2.84;79.13
29045;BME280;16133;49.486;12.176;2023-03-04T13:38:32;97677.72;;;2.99;80.10
29045;BME280;16133;49.486;12.176;2023-03-04T13:43:27;97678.31;;;3.02;80.42
29045;BME280;16133;49.486;12.176;2023-03-04T13:45:53;97675.53;;;3.04;80.79
29045;BME280;16133;49.486;12.176;2023-03-04T13:48:32;97675.16;;;3.08;79.48
29045;BME280;16133;49.486;12.176;2023-03-04T13:51:00;97670.13;;;3.16;79.08
29045;BME280;16133;49.486;12.176;2023-03-04T13:53:41;97662.53;;;3.13;78.47
29045;BME280;16133;49.486;12.176;2023-03-04T13:58:36;97669.03;;;2.98;79.63
29045;BME280;16133;49.486;12.176;2023-03-04T14:01:03;97665.69;;;2.96;79.25
29045;BME280;16133;49.486;12.176;2023-03-04T14:03:30;97669.88;;;2.99;80.27
29045;BME280;16133;49.486;12.176;2023-03-04T14:08:34;97661.28;;;2.97;80.03
29045;BME280;16133;49.486;12.176;2023-03-04T14:10:59;97657.00;;;2.96;80.60
29045;BME280;16133;49.486;12.176;2023-03-04T14:13:25;97659.88;;;2.93;80.45
29045;BME280;16133;49.486;12.176;2023-03-04T14:15:56;97647.81;;;3.01;81.30
29045;BME280;16133;49.486;12.176;2023-03-04T14:18:22;97652.97;;;3.12;79.85
29045;BME280;16133;49.486;12.176;2023-03-04T14:20:50;97644.28;;;3.12;80.23
29045;BME280;16133;49.486;12.176;2023-03-04T14:23:33;97644.84;;;3.15;79.10
29045;BME280;16133;49.486;12.176;2023-03-04T14:26:10;97639.09;;;3.01;80.03
29045;BME280;16133;49.486;12.176;2023-03-04T14:28:50;97643.66;;;2.99;80.13
29045;BME280;16133;49.486;12.176;2023-03-04T14:31:18;97642.00;;;2.98;80.70
29045;BME280;16133;49.486;12.176;2023-03-04T14:33:47;97640.88;;;3.00;80.53